sensor_id;sensor_type;location;lat;lon;timestamp;temperature;humidity
13123;DHT22;6627;50.920;12.050;2023-07-29T00:01:14;20.40;99.90
13123;DHT22;6627;50.920;12.050;2023-07-29T00:03:42;20.40;99.90
13123;DHT22;6627;50.920;12.050;2023-07-29T00:06:09;20.40;99.90
13123;DHT22;6627;50.920;12.050;2023-07-29T00:08:38;20.40;99.90
13123;DHT22;6627;50.920;12.050;2023-07-29T00:11:05;20.40;99.90
13123;DHT22;6627;50.920;12.050;2023-07-29T00:13:32;20.30;99.90
13123;DHT22;6627;50.920;12.050;2023-07-29T00:16:00;20.00;99.90
13123;DHT22;6627;50.920;12.050;2023-07-29T00:18:27;19.80;99.90
13123;DHT22;6627;50.920;12.050;2023-07-29T00:20:54;19.70;99.90
13123;DHT22;6627;50.920;12.050;2023-07-29T00:23:23;19.70;99.90
13123;DHT22;6627;50.920;12.050;2023-07-29T00:25:52;19.70;99.90
13123;DHT22;6627;50.920;12.050;2023-07-29T00:28:19;19.70;99.90
13123;DHT22;6627;50.920;12.050;2023-07-29T00:33:14;19.40;99.90
13123;DHT22;6627;50.920;12.050;2023-07-29T00:35:41;19.50;99.90
13123;DHT22;6627;50.920;12.050;2023-07-29T00:40:36;19.50;99.90
13123;DHT22;6627;50.920;12.050;2023-07-29T00:43:05;19.50;99.90
13123;DHT22;6627;50.920;12.050;2023-07-29T00:45:33;19.60;99.90
13123;DHT22;6627;50.920;12.050;2023-07-29T00:48:01;19.70;99.90
13123;DHT22;6627;50.920;12.050;2023-07-29T00:50:30;19.60;99.90
13123;DHT22;6627;50.920;12.050;2023-07-29T00:52:59;19.60;99.90
13123;DHT22;6627;50.920;12.050;2023-07-29T00:55:26;19.60;99.90
13123;DHT22;6627;50.920;12.050;2023-07-29T00:57:54;19.60;99.90
13123;DHT22;6627;50.920;12.050;2023-07-29T01:00:23;19.70;99.90
13123;DHT22;6627;50.920;12.050;2023-07-29T01:02:51;19.70;99.90
13123;DHT22;6627;50.920;12.050;2023-07-29T01:05:21;19.70;99.90
13123;DHT22;6627;50.920;12.050;2023-07-29T01:07:51;19.80;99.90
13123;DHT22;6627;50.920;12.050;2023-07-29T01:10:32;19.70;99.90
13123;DHT22;6627;50.920;12.050;2023-07-29T01:13:17;19.60;99.90
13123;DHT22;6627;50.920;12.050;2023-07-29T01:15:54;19.60;99.90
13123;DHT22;6627;50.920;12.050;2023-07-29T01:18:27;19.60;99.90
13123;DHT22;6627;50.920;12.050;2023-07-29T01:20:59;19.60;99.90
13123;DHT22;6627;50.920;12.050;2023-07-29T01:23:31;19.60;99.90
13123;DHT22;6627;50.920;12.050;2023-07-29T01:26:01;19.60;99.90
13123;DHT22;6627;50.920;12.050;2023-07-29T01:28:29;19.60;99.90
13123;DHT22;6627;50.920;12.050;2023-07-29T01:31:02;19.60;99.90
13123;DHT22;6627;50.920;12.050;2023-07-29T01:33:39;19.70;99.90
13123;DHT22;6627;50.920;12.050;2023-07-29T01:36:13;19.70;99.90
13123;DHT22;6627;50.920;12.050;2023-07-29T01:38:48;19.70;99.90
13123;DHT22;6627;50.920;12.050;2023-07-29T01:41:18;19.70;99.90
13123;DHT22;6627;50.920;12.050;2023-07-29T01:43:47;19.70;99.90
13123;DHT22;6627;50.920;12.050;2023-07-29T01:46:15;19.70;99.90
13123;DHT22;6627;50.920;12.050;2023-07-29T01:48:43;19.70;99.90
13123;DHT22;6627;50.920;12.050;2023-07-29T01:51:12;19.70;99.90
13123;DHT22;6627;50.920;12.050;2023-07-29T01:53:39;19.70;99.90
13123;DHT22;6627;50.920;12.050;2023-07-29T01:56:08;19.70;99.90
13123;DHT22;6627;50.920;12.050;2023-07-29T01:58:35;19.70;99.90
13123;DHT22;6627;50.920;12.050;2023-07-29T02:01:03;19.70;99.90
13123;DHT22;6627;50.920;12.050;2023-07-29T02:03:30;19.70;99.90
13123;DHT22;6627;50.920;12.050;2023-07-29T02:05:57;19.70;99.90
13123;DHT22;6627;50.920;12.050;2023-07-29T02:08:24;19.70;99.90
13123;DHT22;6627;50.920;12.050;2023-07-29T02:10:52;19.70;99.90
13123;DHT22;6627;50.920;12.050;2023-07-29T02:13:20;19.70;99.90
13123;DHT22;6627;50.920;12.050;2023-07-29T02:15:48;19.70;99.90
13123;DHT22;6627;50.920;12.050;2023-07-29T02:20:43;19.80;99.90
13123;DHT22;6627;50.920;12.050;2023-07-29T02:25:43;19.70;99.90
13123;DHT22;6627;50.920;12.050;2023-07-29T02:28:10;19.70;99.90
13123;DHT22;6627;50.920;12.050;2023-07-29T02:30:41;19.60;99.90
13123;DHT22;6627;50.920;12.050;2023-07-29T02:33:10;19.70;99.90
13123;DHT22;6627;50.920;12.050;2023-07-29T02:35:39;19.70;99.90
13123;DHT22;6627;50.920;12.050;2023-07-29T02:38:06;19.70;99.90
13123;DHT22;6627;50.920;12.050;2023-07-29T02:40:34;19.70;99.90
13123;DHT22;6627;50.920;12.050;2023-07-29T02:43:01;19.70;99.90
13123;DHT22;6627;50.920;12.050;2023-07-29T02:45:29;19.60;99.90
13123;DHT22;6627;50.920;12.050;2023-07-29T02:47:57;19.70;99.90
13123;DHT22;6627;50.920;12.050;2023-07-29T02:50:25;19.70;99.90
13123;DHT22;6627;50.920;12.050;2023-07-29T02:55:20;19.70;99.90
13123;DHT22;6627;50.920;12.050;2023-07-29T02:57:47;19.70;99.90
13123;DHT22;6627;50.920;12.050;2023-07-29T03:00:14;19.70;99.90
13123;DHT22;6627;50.920;12.050;2023-07-29T03:05:11;19.60;99.90
13123;DHT22;6627;50.920;12.050;2023-07-29T03:07:38;19.70;99.90
13123;DHT22;6627;50.920;12.050;2023-07-29T03:10:06;19.60;99.90
13123;DHT22;6627;50.920;12.050;2023-07-29T03:15:01;19.50;99.90
13123;DHT22;6627;50.920;12.050;2023-07-29T03:17:29;19.40;99.90
13123;DHT22;6627;50.920;12.050;2023-07-29T03:19:56;19.40;99.90
13123;DHT22;6627;50.920;12.050;2023-07-29T03:22:25;19.40;99.90
13123;DHT22;6627;50.920;12.050;2023-07-29T03:24:52;19.40;99.90
13123;DHT22;6627;50.920;12.050;2023-07-29T03:27:20;19.40;99.90
13123;DHT22;6627;50.920;12.050;2023-07-29T03:29:47;19.30;99.90
13123;DHT22;6627;50.920;12.050;2023-07-29T03:32:14;19.30;99.90
13123;DHT22;6627;50.920;12.050;2023-07-29T03:34:42;19.10;99.90
13123;DHT22;6627;50.920;12.050;2023-07-29T03:37:09;19.00;99.90
13123;DHT22;6627;50.920;12.050;2023-07-29T03:39:37;18.70;99.90
13123;DHT22;6627;50.920;12.050;2023-07-29T03:42:05;18.60;99.90
13123;DHT22;6627;50.920;12.050;2023-07-29T03:44:32;18.40;99.90
13123;DHT22;6627;50.920;12.050;2023-07-29T03:47:01;18.30;99.90
13123;DHT22;6627;50.920;12.050;2023-07-29T03:49:28;18.20;99.90
13123;DHT22;6627;50.920;12.050;2023-07-29T03:51:56;18.20;99.90
13123;DHT22;6627;50.920;12.050;2023-07-29T03:54:23;18.10;99.90
13123;DHT22;6627;50.920;12.050;2023-07-29T03:56:51;18.10;99.90
13123;DHT22;6627;50.920;12.050;2023-07-29T03:59:19;18.00;99.90
13123;DHT22;6627;50.920;12.050;2023-07-29T04:04:16;17.90;99.90
13123;DHT22;6627;50.920;12.050;2023-07-29T04:11:38;17.90;99.90
13123;DHT22;6627;50.920;12.050;2023-07-29T04:14:07;17.80;99.90
13123;DHT22;6627;50.920;12.050;2023-07-29T04:16:34;17.80;99.90
13123;DHT22;6627;50.920;12.050;2023-07-29T04:19:01;17.80;99.90
13123;DHT22;6627;50.920;12.050;2023-07-29T04:23:56;17.80;99.90
13123;DHT22;6627;50.920;12.050;2023-07-29T04:26:23;17.90;99.90
13123;DHT22;6627;50.920;12.050;2023-07-29T04:28:51;17.90;99.90
13123;DHT22;6627;50.920;12.050;2023-07-29T04:31:19;18.00;99.90
13123;DHT22;6627;50.920;12.050;2023-07-29T04:33:46;17.90;99.90
13123;DHT22;6627;50.920;12.050;2023-07-29T04:36:14;18.10;99.90
13123;DHT22;6627;50.920;12.050;2023-07-29T04:38:41;18.10;99.90
13123;DHT22;6627;50.920;12.050;2023-07-29T04:41:08;18.10;99.90
13123;DHT22;6627;50.920;12.050;2023-07-29T04:46:06;18.00;99.90
13123;DHT22;6627;50.920;12.050;2023-07-29T04:48:36;18.00;99.90
13123;DHT22;6627;50.920;12.050;2023-07-29T04:51:03;18.00;99.90
13123;DHT22;6627;50.920;12.050;2023-07-29T04:53:30;18.10;99.90
13123;DHT22;6627;50.920;12.050;2023-07-29T04:55:58;18.10;99.90
13123;DHT22;6627;50.920;12.050;2023-07-29T04:58:26;18.10;99.90
13123;DHT22;6627;50.920;12.050;2023-07-29T05:00:55;18.20;99.90
13123;DHT22;6627;50.920;12.050;2023-07-29T05:03:23;18.40;99.90
13123;DHT22;6627;50.920;12.050;2023-07-29T05:05:52;18.40;99.90
13123;DHT22;6627;50.920;12.050;2023-07-29T05:08:22;18.50;99.90
13123;DHT22;6627;50.920;12.050;2023-07-29T05:10:50;18.60;99.90
13123;DHT22;6627;50.920;12.050;2023-07-29T05:13:25;18.60;99.90
13123;DHT22;6627;50.920;12.050;2023-07-29T05:15:52;18.70;99.90
13123;DHT22;6627;50.920;12.050;2023-07-29T05:18:20;18.90;99.90
13123;DHT22;6627;50.920;12.050;2023-07-29T05:20:48;19.00;99.90
13123;DHT22;6627;50.920;12.050;2023-07-29T05:23:16;19.10;99.90
13123;DHT22;6627;50.920;12.050;2023-07-29T05:25:44;19.10;99.90
13123;DHT22;6627;50.920;12.050;2023-07-29T05:30:39;19.40;99.90
13123;DHT22;6627;50.920;12.050;2023-07-29T05:33:06;19.50;99.90
13123;DHT22;6627;50.920;12.050;2023-07-29T05:35:34;19.60;99.90
13123;DHT22;6627;50.920;12.050;2023-07-29T05:38:01;19.70;99.90
13123;DHT22;6627;50.920;12.050;2023-07-29T05:40:32;19.80;99.90
13123;DHT22;6627;50.920;12.050;2023-07-29T05:45:29;19.90;99.90
13123;DHT22;6627;50.920;12.050;2023-07-29T05:47:57;20.00;99.90
13123;DHT22;6627;50.920;12.050;2023-07-29T05:50:24;20.00;99.90
13123;DHT22;6627;50.920;12.050;2023-07-29T05:52:52;20.10;99.90
13123;DHT22;6627;50.920;12.050;2023-07-29T05:55:19;20.10;99.90
13123;DHT22;6627;50.920;12.050;2023-07-29T05:57:48;20.20;99.90
13123;DHT22;6627;50.920;12.050;2023-07-29T06:00:16;20.20;99.90
13123;DHT22;6627;50.920;12.050;2023-07-29T06:02:44;20.30;99.90
13123;DHT22;6627;50.920;12.050;2023-07-29T06:05:11;20.40;99.90
13123;DHT22;6627;50.920;12.050;2023-07-29T06:07:38;20.40;99.90
13123;DHT22;6627;50.920;12.050;2023-07-29T06:10:10;20.50;99.90
13123;DHT22;6627;50.920;12.050;2023-07-29T06:12:38;20.70;99.90
13123;DHT22;6627;50.920;12.050;2023-07-29T06:54:40;21.80;99.90
13123;DHT22;6627;50.920;12.050;2023-07-29T06:57:07;21.80;99.90
13123;DHT22;6627;50.920;12.050;2023-07-29T06:59:35;21.90;99.90
13123;DHT22;6627;50.920;12.050;2023-07-29T07:02:02;22.00;99.90
13123;DHT22;6627;50.920;12.050;2023-07-29T07:04:30;22.10;99.90
13123;DHT22;6627;50.920;12.050;2023-07-29T07:06:59;22.10;99.90
13123;DHT22;6627;50.920;12.050;2023-07-29T07:09:26;21.90;99.90
13123;DHT22;6627;50.920;12.050;2023-07-29T07:11:54;21.80;99.90
13123;DHT22;6627;50.920;12.050;2023-07-29T07:14:21;21.80;99.90
13123;DHT22;6627;50.920;12.050;2023-07-29T07:16:49;21.70;99.90
13123;DHT22;6627;50.920;12.050;2023-07-29T07:19:16;21.70;99.90
13123;DHT22;6627;50.920;12.050;2023-07-29T07:21:43;21.80;99.90
13123;DHT22;6627;50.920;12.050;2023-07-29T07:24:12;21.80;99.90
13123;DHT22;6627;50.920;12.050;2023-07-29T07:26:39;21.80;99.90
13123;DHT22;6627;50.920;12.050;2023-07-29T07:29:06;21.80;99.90
13123;DHT22;6627;50.920;12.050;2023-07-29T07:31:34;21.80;99.90
13123;DHT22;6627;50.920;12.050;2023-07-29T07:34:01;21.70;99.90
13123;DHT22;6627;50.920;12.050;2023-07-29T07:36:30;21.60;99.90
13123;DHT22;6627;50.920;12.050;2023-07-29T07:38:57;21.40;99.90
13123;DHT22;6627;50.920;12.050;2023-07-29T07:41:26;21.20;99.90
13123;DHT22;6627;50.920;12.050;2023-07-29T07:43:54;21.00;99.90
13123;DHT22;6627;50.920;12.050;2023-07-29T07:46:22;21.00;99.90
13123;DHT22;6627;50.920;12.050;2023-07-29T07:48:49;21.00;99.90
13123;DHT22;6627;50.920;12.050;2023-07-29T07:51:17;21.00;99.90
13123;DHT22;6627;50.920;12.050;2023-07-29T07:53:44;21.10;99.90
13123;DHT22;6627;50.920;12.050;2023-07-29T07:58:41;21.10;99.90
13123;DHT22;6627;50.920;12.050;2023-07-29T08:01:09;21.00;99.90
13123;DHT22;6627;50.920;12.050;2023-07-29T08:03:36;21.00;99.90
13123;DHT22;6627;50.920;12.050;2023-07-29T08:06:04;21.00;99.90
13123;DHT22;6627;50.920;12.050;2023-07-29T08:08:31;20.80;99.90
13123;DHT22;6627;50.920;12.050;2023-07-29T08:10:58;21.30;99.90
13123;DHT22;6627;50.920;12.050;2023-07-29T08:15:55;21.00;99.90
13123;DHT22;6627;50.920;12.050;2023-07-29T08:18:22;21.00;99.90
13123;DHT22;6627;50.920;12.050;2023-07-29T08:20:52;21.20;99.90
13123;DHT22;6627;50.920;12.050;2023-07-29T08:23:21;21.50;99.90
13123;DHT22;6627;50.920;12.050;2023-07-29T08:25:52;22.30;99.90
13123;DHT22;6627;50.920;12.050;2023-07-29T08:28:22;22.20;99.90
13123;DHT22;6627;50.920;12.050;2023-07-29T08:30:50;22.20;99.90
13123;DHT22;6627;50.920;12.050;2023-07-29T08:33:19;22.20;99.90
13123;DHT22;6627;50.920;12.050;2023-07-29T08:35:46;22.30;99.90
13123;DHT22;6627;50.920;12.050;2023-07-29T08:38:13;22.20;99.90
13123;DHT22;6627;50.920;12.050;2023-07-29T08:40:45;22.20;99.90
13123;DHT22;6627;50.920;12.050;2023-07-29T08:43:18;22.10;99.90
13123;DHT22;6627;50.920;12.050;2023-07-29T08:45:47;22.20;99.90
13123;DHT22;6627;50.920;12.050;2023-07-29T08:48:19;22.30;99.90
13123;DHT22;6627;50.920;12.050;2023-07-29T08:50:53;22.30;99.90
13123;DHT22;6627;50.920;12.050;2023-07-29T08:53:21;22.30;99.90
13123;DHT22;6627;50.920;12.050;2023-07-29T08:55:49;22.40;99.90
13123;DHT22;6627;50.920;12.050;2023-07-29T08:58:17;22.60;99.90
13123;DHT22;6627;50.920;12.050;2023-07-29T09:00:46;22.60;99.90
13123;DHT22;6627;50.920;12.050;2023-07-29T09:05:45;22.50;99.90
13123;DHT22;6627;50.920;12.050;2023-07-29T09:10:41;22.40;99.90
13123;DHT22;6627;50.920;12.050;2023-07-29T09:13:09;22.40;99.90
13123;DHT22;6627;50.920;12.050;2023-07-29T09:18:09;22.40;99.90
13123;DHT22;6627;50.920;12.050;2023-07-29T09:23:09;22.40;99.90
13123;DHT22;6627;50.920;12.050;2023-07-29T09:25:37;22.40;99.90
13123;DHT22;6627;50.920;12.050;2023-07-29T09:28:10;22.40;99.90
13123;DHT22;6627;50.920;12.050;2023-07-29T09:30:39;22.50;99.90
13123;DHT22;6627;50.920;12.050;2023-07-29T09:33:09;22.60;99.90
13123;DHT22;6627;50.920;12.050;2023-07-29T09:35:38;22.60;99.90
13123;DHT22;6627;50.920;12.050;2023-07-29T09:38:06;22.60;99.90
13123;DHT22;6627;50.920;12.050;2023-07-29T09:40:35;22.60;99.90
13123;DHT22;6627;50.920;12.050;2023-07-29T09:43:05;22.70;99.90
13123;DHT22;6627;50.920;12.050;2023-07-29T09:45:34;22.80;99.90
13123;DHT22;6627;50.920;12.050;2023-07-29T09:48:04;22.90;99.90
13123;DHT22;6627;50.920;12.050;2023-07-29T09:50:35;22.90;99.90
13123;DHT22;6627;50.920;12.050;2023-07-29T09:53:03;22.90;99.90
13123;DHT22;6627;50.920;12.050;2023-07-29T09:55:35;22.80;99.90
13123;DHT22;6627;50.920;12.050;2023-07-29T10:00:34;22.50;99.90
13123;DHT22;6627;50.920;12.050;2023-07-29T10:05:33;22.60;99.90
13123;DHT22;6627;50.920;12.050;2023-07-29T10:08:01;22.60;99.90
13123;DHT22;6627;50.920;12.050;2023-07-29T10:10:29;22.70;99.90
13123;DHT22;6627;50.920;12.050;2023-07-29T10:12:59;22.60;99.90
13123;DHT22;6627;50.920;12.050;2023-07-29T10:15:29;22.60;99.90
13123;DHT22;6627;50.920;12.050;2023-07-29T10:18:02;22.50;99.90
13123;DHT22;6627;50.920;12.050;2023-07-29T10:20:32;22.50;99.90
13123;DHT22;6627;50.920;12.050;2023-07-29T10:23:03;22.60;99.90
13123;DHT22;6627;50.920;12.050;2023-07-29T10:25:38;22.60;99.90
13123;DHT22;6627;50.920;12.050;2023-07-29T10:28:12;22.60;99.90
13123;DHT22;6627;50.920;12.050;2023-07-29T10:30:43;22.60;99.90
13123;DHT22;6627;50.920;12.050;2023-07-29T10:33:11;22.70;99.90
13123;DHT22;6627;50.920;12.050;2023-07-29T10:35:39;22.70;99.90
13123;DHT22;6627;50.920;12.050;2023-07-29T10:38:08;22.70;99.90
13123;DHT22;6627;50.920;12.050;2023-07-29T10:40:47;22.80;99.90
13123;DHT22;6627;50.920;12.050;2023-07-29T10:43:25;22.80;99.90
13123;DHT22;6627;50.920;12.050;2023-07-29T10:45:55;22.70;99.90
13123;DHT22;6627;50.920;12.050;2023-07-29T10:48:40;22.70;99.90
13123;DHT22;6627;50.920;12.050;2023-07-29T10:51:26;22.70;99.90
13123;DHT22;6627;50.920;12.050;2023-07-29T10:53:58;22.70;99.90
13123;DHT22;6627;50.920;12.050;2023-07-29T10:56:29;22.80;99.90
13123;DHT22;6627;50.920;12.050;2023-07-29T11:02:02;22.80;99.90
13123;DHT22;6627;50.920;12.050;2023-07-29T11:07:22;22.70;99.90
13123;DHT22;6627;50.920;12.050;2023-07-29T11:09:58;22.70;99.90
13123;DHT22;6627;50.920;12.050;2023-07-29T11:12:43;22.70;99.90
13123;DHT22;6627;50.920;12.050;2023-07-29T11:15:19;22.70;99.90
13123;DHT22;6627;50.920;12.050;2023-07-29T11:17:51;22.60;99.90
13123;DHT22;6627;50.920;12.050;2023-07-29T11:20:20;22.60;99.90
13123;DHT22;6627;50.920;12.050;2023-07-29T11:22:50;22.60;99.90
13123;DHT22;6627;50.920;12.050;2023-07-29T11:25:18;22.60;99.90
13123;DHT22;6627;50.920;12.050;2023-07-29T11:27:46;22.60;99.90
13123;DHT22;6627;50.920;12.050;2023-07-29T11:30:15;22.70;99.90
13123;DHT22;6627;50.920;12.050;2023-07-29T11:32:45;23.00;99.90
13123;DHT22;6627;50.920;12.050;2023-07-29T11:35:16;23.10;99.90
13123;DHT22;6627;50.920;12.050;2023-07-29T11:37:46;23.20;99.90
13123;DHT22;6627;50.920;12.050;2023-07-29T11:40:15;23.30;99.90
13123;DHT22;6627;50.920;12.050;2023-07-29T12:22:53;25.10;99.90
13123;DHT22;6627;50.920;12.050;2023-07-29T12:30:20;25.00;99.90
13123;DHT22;6627;50.920;12.050;2023-07-29T12:32:49;25.00;99.90
13123;DHT22;6627;50.920;12.050;2023-07-29T12:35:18;25.20;99.90
13123;DHT22;6627;50.920;12.050;2023-07-29T12:40:23;25.30;99.90
13123;DHT22;6627;50.920;12.050;2023-07-29T12:42:51;25.20;99.90
13123;DHT22;6627;50.920;12.050;2023-07-29T12:45:20;25.20;99.90
13123;DHT22;6627;50.920;12.050;2023-07-29T12:47:49;25.40;99.90
13123;DHT22;6627;50.920;12.050;2023-07-29T12:50:18;25.30;99.90
13123;DHT22;6627;50.920;12.050;2023-07-29T12:52:45;25.50;99.90
13123;DHT22;6627;50.920;12.050;2023-07-29T12:55:15;25.70;99.90
13123;DHT22;6627;50.920;12.050;2023-07-29T12:57:42;25.70;99.90
13123;DHT22;6627;50.920;12.050;2023-07-29T13:00:11;25.80;99.90
13123;DHT22;6627;50.920;12.050;2023-07-29T13:02:39;25.80;99.90
13123;DHT22;6627;50.920;12.050;2023-07-29T13:05:09;25.50;99.90
13123;DHT22;6627;50.920;12.050;2023-07-29T13:07:39;25.20;99.90
13123;DHT22;6627;50.920;12.050;2023-07-29T13:10:08;25.50;99.90
13123;DHT22;6627;50.920;12.050;2023-07-29T13:15:06;26.00;99.90
13123;DHT22;6627;50.920;12.050;2023-07-29T13:17:34;26.00;99.90
13123;DHT22;6627;50.920;12.050;2023-07-29T13:20:04;25.70;99.90
13123;DHT22;6627;50.920;12.050;2023-07-29T13:22:33;25.80;99.90
13123;DHT22;6627;50.920;12.050;2023-07-29T13:25:02;25.90;99.90
13123;DHT22;6627;50.920;12.050;2023-07-29T13:27:29;25.90;99.90
13123;DHT22;6627;50.920;12.050;2023-07-29T13:29:56;26.00;99.90
13123;DHT22;6627;50.920;12.050;2023-07-29T13:37:21;26.40;99.90
13123;DHT22;6627;50.920;12.050;2023-07-29T13:42:17;26.40;99.90
13123;DHT22;6627;50.920;12.050;2023-07-29T13:44:44;26.50;99.90
13123;DHT22;6627;50.920;12.050;2023-07-29T13:47:13;26.30;99.90
13123;DHT22;6627;50.920;12.050;2023-07-29T13:49:40;26.20;99.90
13123;DHT22;6627;50.920;12.050;2023-07-29T13:52:08;26.10;99.90
13123;DHT22;6627;50.920;12.050;2023-07-29T13:54:35;26.10;99.90
13123;DHT22;6627;50.920;12.050;2023-07-29T13:57:03;26.30;99.90
13123;DHT22;6627;50.920;12.050;2023-07-29T13:59:34;26.20;99.90
13123;DHT22;6627;50.920;12.050;2023-07-29T14:02:02;26.30;99.90
13123;DHT22;6627;50.920;12.050;2023-07-29T14:04:29;26.00;99.90
13123;DHT22;6627;50.920;12.050;2023-07-29T14:06:57;25.80;99.90
13123;DHT22;6627;50.920;12.050;2023-07-29T14:09:25;26.00;99.90
13123;DHT22;6627;50.920;12.050;2023-07-29T14:11:53;26.20;99.90
13123;DHT22;6627;50.920;12.050;2023-07-29T14:14:21;26.10;99.90
13123;DHT22;6627;50.920;12.050;2023-07-29T14:16:50;26.00;99.90
13123;DHT22;6627;50.920;12.050;2023-07-29T14:19:17;25.80;99.90
13123;DHT22;6627;50.920;12.050;2023-07-29T14:21:45;25.80;99.90
13123;DHT22;6627;50.920;12.050;2023-07-29T14:24:13;25.80;99.90
13123;DHT22;6627;50.920;12.050;2023-07-29T14:26:41;25.90;99.90
13123;DHT22;6627;50.920;12.050;2023-07-29T14:29:08;25.90;99.90
13123;DHT22;6627;50.920;12.050;2023-07-29T14:31:36;25.80;99.90
13123;DHT22;6627;50.920;12.050;2023-07-29T14:34:05;25.70;99.90
13123;DHT22;6627;50.920;12.050;2023-07-29T14:36:32;25.80;99.90
13123;DHT22;6627;50.920;12.050;2023-07-29T14:39:00;25.50;99.90
13123;DHT22;6627;50.920;12.050;2023-07-29T14:41:27;25.40;99.90
13123;DHT22;6627;50.920;12.050;2023-07-29T14:46:23;25.20;99.90
13123;DHT22;6627;50.920;12.050;2023-07-29T14:48:50;25.00;99.90
13123;DHT22;6627;50.920;12.050;2023-07-29T14:51:19;25.00;99.90
13123;DHT22;6627;50.920;12.050;2023-07-29T14:53:46;25.00;99.90
13123;DHT22;6627;50.920;12.050;2023-07-29T14:58:43;24.80;99.90
13123;DHT22;6627;50.920;12.050;2023-07-29T15:01:11;24.80;99.90
13123;DHT22;6627;50.920;12.050;2023-07-29T15:03:38;24.80;99.90
13123;DHT22;6627;50.920;12.050;2023-07-29T15:06:05;24.70;99.90
13123;DHT22;6627;50.920;12.050;2023-07-29T15:08:34;24.20;99.90
13123;DHT22;6627;50.920;12.050;2023-07-29T15:11:03;23.70;99.90
13123;DHT22;6627;50.920;12.050;2023-07-29T15:13:37;23.30;99.90
13123;DHT22;6627;50.920;12.050;2023-07-29T15:16:23;22.50;99.90
13123;DHT22;6627;50.920;12.050;2023-07-29T15:18:53;21.90;99.90
13123;DHT22;6627;50.920;12.050;2023-07-29T15:21:21;21.50;99.90
13123;DHT22;6627;50.920;12.050;2023-07-29T15:23:50;20.80;99.90
13123;DHT22;6627;50.920;12.050;2023-07-29T15:26:17;21.00;99.90
13123;DHT22;6627;50.920;12.050;2023-07-29T15:28:46;20.90;99.90
13123;DHT22;6627;50.920;12.050;2023-07-29T15:46:03;20.30;99.90
13123;DHT22;6627;50.920;12.050;2023-07-29T15:48:31;20.30;99.90
13123;DHT22;6627;50.920;12.050;2023-07-29T15:50:58;20.30;99.90
13123;DHT22;6627;50.920;12.050;2023-07-29T15:53:25;20.30;99.90
13123;DHT22;6627;50.920;12.050;2023-07-29T15:55:56;20.30;99.90
13123;DHT22;6627;50.920;12.050;2023-07-29T15:58:25;20.10;99.90
13123;DHT22;6627;50.920;12.050;2023-07-29T16:00:52;19.90;99.90
13123;DHT22;6627;50.920;12.050;2023-07-29T16:03:19;19.90;99.90
13123;DHT22;6627;50.920;12.050;2023-07-29T16:05:49;20.10;99.90
13123;DHT22;6627;50.920;12.050;2023-07-29T16:08:16;20.00;99.90
13123;DHT22;6627;50.920;12.050;2023-07-29T16:10:44;20.10;99.90
13123;DHT22;6627;50.920;12.050;2023-07-29T16:13:11;20.10;99.90
13123;DHT22;6627;50.920;12.050;2023-07-29T16:15:44;20.10;99.90
13123;DHT22;6627;50.920;12.050;2023-07-29T16:18:13;20.20;99.90
13123;DHT22;6627;50.920;12.050;2023-07-29T16:20:41;19.90;99.90
13123;DHT22;6627;50.920;12.050;2023-07-29T16:23:08;19.60;99.90
13123;DHT22;6627;50.920;12.050;2023-07-29T16:25:35;19.70;99.90
13123;DHT22;6627;50.920;12.050;2023-07-29T16:28:03;20.10;99.90
13123;DHT22;6627;50.920;12.050;2023-07-29T16:30:30;20.50;99.90
13123;DHT22;6627;50.920;12.050;2023-07-29T16:32:59;20.50;99.90
13123;DHT22;6627;50.920;12.050;2023-07-29T16:35:26;20.60;99.90
13123;DHT22;6627;50.920;12.050;2023-07-29T16:37:54;20.60;99.90
13123;DHT22;6627;50.920;12.050;2023-07-29T16:40:24;20.70;99.90
13123;DHT22;6627;50.920;12.050;2023-07-29T16:42:52;20.50;99.90
13123;DHT22;6627;50.920;12.050;2023-07-29T16:45:21;20.20;99.90
13123;DHT22;6627;50.920;12.050;2023-07-29T16:47:49;20.30;99.90
13123;DHT22;6627;50.920;12.050;2023-07-29T16:50:18;20.40;99.90
13123;DHT22;6627;50.920;12.050;2023-07-29T16:52:45;20.60;99.90
13123;DHT22;6627;50.920;12.050;2023-07-29T16:55:14;20.60;99.90
13123;DHT22;6627;50.920;12.050;2023-07-29T16:57:43;20.70;99.90
13123;DHT22;6627;50.920;12.050;2023-07-29T17:00:11;20.60;99.90
13123;DHT22;6627;50.920;12.050;2023-07-29T17:02:39;20.70;99.90
13123;DHT22;6627;50.920;12.050;2023-07-29T17:05:07;20.40;99.90
13123;DHT22;6627;50.920;12.050;2023-07-29T17:07:36;20.50;99.90
13123;DHT22;6627;50.920;12.050;2023-07-29T17:10:04;20.50;99.90
13123;DHT22;6627;50.920;12.050;2023-07-29T17:12:32;20.50;99.90
13123;DHT22;6627;50.920;12.050;2023-07-29T17:15:00;20.10;99.90
13123;DHT22;6627;50.920;12.050;2023-07-29T17:17:28;20.20;99.90
13123;DHT22;6627;50.920;12.050;2023-07-29T17:19:55;20.20;99.90
13123;DHT22;6627;50.920;12.050;2023-07-29T17:22:22;20.00;99.90
13123;DHT22;6627;50.920;12.050;2023-07-29T17:24:51;19.90;99.90
13123;DHT22;6627;50.920;12.050;2023-07-29T17:27:19;19.50;99.90
13123;DHT22;6627;50.920;12.050;2023-07-29T17:29:46;19.60;99.90
13123;DHT22;6627;50.920;12.050;2023-07-29T17:32:13;19.80;99.90
13123;DHT22;6627;50.920;12.050;2023-07-29T17:34:41;19.90;99.90
13123;DHT22;6627;50.920;12.050;2023-07-29T17:37:08;19.90;99.90
13123;DHT22;6627;50.920;12.050;2023-07-29T17:39:36;20.10;99.90
13123;DHT22;6627;50.920;12.050;2023-07-29T17:42:08;19.70;99.90
13123;DHT22;6627;50.920;12.050;2023-07-29T17:44:36;19.40;99.90
13123;DHT22;6627;50.920;12.050;2023-07-29T17:47:04;19.10;99.90
13123;DHT22;6627;50.920;12.050;2023-07-29T17:49:32;19.00;99.90
13123;DHT22;6627;50.920;12.050;2023-07-29T17:52:00;19.10;99.90
13123;DHT22;6627;50.920;12.050;2023-07-29T17:54:27;19.10;99.90
13123;DHT22;6627;50.920;12.050;2023-07-29T17:56:55;19.10;99.90
13123;DHT22;6627;50.920;12.050;2023-07-29T17:59:24;18.90;99.90
13123;DHT22;6627;50.920;12.050;2023-07-29T18:01:51;18.80;99.90
13123;DHT22;6627;50.920;12.050;2023-07-29T18:04:19;18.70;99.90
13123;DHT22;6627;50.920;12.050;2023-07-29T18:06:46;18.60;99.90
13123;DHT22;6627;50.920;12.050;2023-07-29T18:09:13;18.60;99.90
13123;DHT22;6627;50.920;12.050;2023-07-29T18:11:41;18.70;99.90
13123;DHT22;6627;50.920;12.050;2023-07-29T18:14:08;18.90;99.90
13123;DHT22;6627;50.920;12.050;2023-07-29T18:16:37;18.80;99.90
13123;DHT22;6627;50.920;12.050;2023-07-29T18:19:06;18.80;99.90
13123;DHT22;6627;50.920;12.050;2023-07-29T18:21:34;18.90;99.90
13123;DHT22;6627;50.920;12.050;2023-07-29T18:24:01;18.70;99.90
13123;DHT22;6627;50.920;12.050;2023-07-29T18:26:28;18.60;99.90
13123;DHT22;6627;50.920;12.050;2023-07-29T18:28:56;18.40;99.90
13123;DHT22;6627;50.920;12.050;2023-07-29T18:31:23;18.30;99.90
13123;DHT22;6627;50.920;12.050;2023-07-29T18:33:52;18.30;99.90
13123;DHT22;6627;50.920;12.050;2023-07-29T18:36:19;18.20;99.90